Time;durP1;ratioP1;P1;durP2;ratioP2;P2;SDS_P1;SDS_P2;PMS_P1;PMS_P2;Temp;Humidity;BMP_temperature;BMP_pressure;BME280_temperature;BME280_humidity;BME280_pressure;Samples;Min_cycle;Max_cycle;Signal;HPM_P1;HPM_P2
2021/09/25 00:00:31;;;;;;;12.33;8.80;;;13.70;99.90;;;;;;5026293;28;20279;-49
2021/09/25 00:03:01;;;;;;;9.00;7.88;;;13.40;99.90;;;;;;5030949;28;20531;-49
2021/09/25 00:05:33;;;;;;;13.07;8.88;;;13.30;99.90;;;;;;5035816;28;20557;-50
2021/09/25 00:07:59;;;;;;;9.50;8.57;;;13.60;99.90;;;;;;5018457;28;20221;-49
2021/09/25 00:10:25;;;;;;;8.83;8.00;;;13.70;99.90;;;;;;5031423;28;20569;-50
2021/09/25 00:12:52;;;;;;;9.38;8.35;;;13.40;99.90;;;;;;5030114;28;20194;-48
2021/09/25 00:15:18;;;;;;;10.60;8.63;;;13.60;99.90;;;;;;5026345;28;20264;-49
2021/09/25 00:17:46;;;;;;;8.63;7.82;;;13.70;99.90;;;;;;5029757;28;20701;-49
2021/09/25 00:20:12;;;;;;;10.05;8.07;;;13.60;99.90;;;;;;5029571;28;20200;-49
2021/09/25 00:22:38;;;;;;;9.20;8.40;;;13.60;99.90;;;;;;5030848;28;20655;-50
2021/09/25 00:25:04;;;;;;;8.60;7.70;;;13.70;99.90;;;;;;5030907;28;20201;-49
2021/09/25 00:27:29;;;;;;;8.20;7.40;;;13.70;99.90;;;;;;5034353;28;20210;-50
2021/09/25 00:29:55;;;;;;;8.10;7.30;;;13.60;99.90;;;;;;5025557;28;20912;-50
2021/09/25 00:32:20;;;;;;;10.23;8.93;;;13.40;99.90;;;;;;5030406;28;20455;-50
2021/09/25 00:34:46;;;;;;;8.97;8.07;;;13.70;99.90;;;;;;5029744;28;20194;-49
2021/09/25 00:37:12;;;;;;;8.90;8.00;;;13.70;99.90;;;;;;5027875;28;20190;-49
2021/09/25 00:39:37;;;;;;;9.50;8.47;;;13.60;99.90;;;;;;5029124;28;20679;-49
2021/09/25 00:42:03;;;;;;;8.53;7.73;;;13.30;99.90;;;;;;5029995;28;20194;-49
2021/09/25 00:44:29;;;;;;;10.43;8.00;;;13.30;99.90;;;;;;5027433;28;20228;-50
2021/09/25 00:46:56;;;;;;;8.37;7.50;;;13.70;99.90;;;;;;5030134;28;20236;-48
2021/09/25 00:49:21;;;;;;;9.27;8.38;;;13.30;99.90;;;;;;5030405;28;20215;-49
2021/09/25 00:51:48;;;;;;;8.77;7.87;;;13.30;99.90;;;;;;5028061;28;20578;-49
2021/09/25 00:54:15;;;;;;;9.10;8.20;;;13.30;99.90;;;;;;5034014;28;20196;-50
2021/09/25 00:56:45;;;;;;;10.18;7.60;;;13.20;99.90;;;;;;5033499;28;20502;-50
2021/09/25 00:59:12;;;;;;;7.25;6.55;;;13.10;99.90;;;;;;5036287;28;20266;-48
2021/09/25 01:01:39;;;;;;;9.13;8.15;;;13.40;99.90;;;;;;5042772;28;20204;-50
2021/09/25 01:04:05;;;;;;;8.07;7.28;;;13.30;99.90;;;;;;5039065;28;20190;-50
2021/09/25 01:06:31;;;;;;;7.60;6.90;;;13.50;99.90;;;;;;5033643;28;20242;-51
2021/09/25 01:08:57;;;;;;;8.40;7.05;;;13.40;99.90;;;;;;5030283;28;20228;-50
2021/09/25 01:11:25;;;;;;;8.02;7.22;;;13.50;99.90;;;;;;5033375;28;20710;-49
2021/09/25 01:13:52;;;;;;;8.25;7.45;;;13.30;99.90;;;;;;5023689;28;20206;-50
2021/09/25 01:16:18;;;;;;;8.88;7.97;;;13.20;99.90;;;;;;5027661;28;20196;-49
2021/09/25 01:18:43;;;;;;;8.60;7.80;;;13.30;99.90;;;;;;5032760;28;20288;-49
2021/09/25 01:21:09;;;;;;;7.63;6.83;;;13.40;99.90;;;;;;5032971;28;20198;-49
2021/09/25 01:23:37;;;;;;;7.88;7.13;;;13.50;99.90;;;;;;5032568;28;20625;-49
2021/09/25 01:26:03;;;;;;;10.10;7.95;;;13.30;99.90;;;;;;5033162;28;20273;-50
2021/09/25 01:28:31;;;;;;;10.55;7.45;;;13.20;99.90;;;;;;5031093;28;20202;-50
2021/09/25 01:30:58;;;;;;;7.57;6.88;;;13.00;99.90;;;;;;5033747;28;20202;-51
2021/09/25 01:33:34;;;;;;;9.90;7.65;;;13.00;99.90;;;;;;5035449;28;20187;-51
2021/09/25 01:36:00;;;;;;;7.97;7.18;;;13.10;99.90;;;;;;5035140;28;20551;-51
2021/09/25 01:38:26;;;;;;;10.13;7.47;;;13.00;99.90;;;;;;5027808;28;20214;-51
2021/09/25 01:40:52;;;;;;;8.47;7.30;;;13.00;99.90;;;;;;5034499;28;20342;-51
2021/09/25 01:43:17;;;;;;;7.63;6.93;;;13.20;99.90;;;;;;5035852;28;20197;-51
2021/09/25 01:45:45;;;;;;;8.60;7.07;;;13.10;99.90;;;;;;5028374;28;20444;-51
2021/09/25 01:48:11;;;;;;;9.02;7.20;;;13.40;99.90;;;;;;5032775;28;20221;-51
2021/09/25 01:50:38;;;;;;;8.00;7.28;;;13.30;99.90;;;;;;5031096;28;20217;-50
2021/09/25 01:53:04;;;;;;;8.90;7.60;;;13.10;99.90;;;;;;5036894;28;20201;-50
2021/09/25 01:55:29;;;;;;;9.00;6.85;;;13.10;99.90;;;;;;5037390;28;20178;-51
2021/09/25 01:57:55;;;;;;;8.00;7.20;;;13.00;99.90;;;;;;5036884;28;20296;-50
2021/09/25 02:00:21;;;;;;;8.70;7.80;;;12.80;99.90;;;;;;5029064;28;20275;-50
2021/09/25 02:02:47;;;;;;;7.53;6.65;;;13.10;99.90;;;;;;5037544;28;20281;-50
2021/09/25 02:05:15;;;;;;;9.37;7.27;;;12.80;99.90;;;;;;5029658;28;20629;-51
2021/09/25 02:07:42;;;;;;;8.63;6.70;;;13.00;99.90;;;;;;5026976;28;20477;-51
2021/09/25 02:10:09;;;;;;;7.97;6.78;;;12.80;99.90;;;;;;5032108;28;20185;-51
2021/09/25 02:12:35;;;;;;;7.78;7.07;;;12.90;99.90;;;;;;5032681;28;20189;-50
2021/09/25 02:15:01;;;;;;;7.50;6.78;;;12.90;99.90;;;;;;5023883;28;20627;-50
2021/09/25 02:17:27;;;;;;;7.67;6.97;;;13.00;99.90;;;;;;5032343;28;20296;-50
2021/09/25 02:19:52;;;;;;;7.83;7.03;;;13.00;99.90;;;;;;5035809;28;20178;-51
2021/09/25 02:22:18;;;;;;;7.70;7.00;;;12.90;99.90;;;;;;5025013;28;20536;-51
2021/09/25 02:24:44;;;;;;;7.30;6.60;;;12.80;99.90;;;;;;5032375;28;20232;-50
2021/09/25 02:27:10;;;;;;;8.07;6.27;;;12.70;99.90;;;;;;5032008;28;20450;-50
2021/09/25 02:29:35;;;;;;;10.40;7.27;;;13.00;99.90;;;;;;5023419;28;20562;-50
2021/09/25 02:32:01;;;;;;;7.70;6.70;;;12.70;99.90;;;;;;5025188;28;20210;-51
2021/09/25 02:34:27;;;;;;;7.47;6.67;;;12.80;99.90;;;;;;5031435;28;20535;-50
2021/09/25 02:36:53;;;;;;;7.33;6.57;;;13.20;99.90;;;;;;5025342;28;20200;-52
2021/09/25 02:39:18;;;;;;;7.07;6.47;;;13.20;99.90;;;;;;5027152;28;20754;-51
2021/09/25 02:41:44;;;;;;;7.47;6.77;;;13.10;99.90;;;;;;5030386;28;20196;-52
2021/09/25 02:44:09;;;;;;;7.10;6.40;;;12.90;99.90;;;;;;5028298;28;20218;-52
2021/09/25 02:46:35;;;;;;;7.27;6.57;;;13.20;99.90;;;;;;5031454;28;20197;-52
2021/09/25 02:49:00;;;;;;;7.23;6.63;;;13.00;99.90;;;;;;5029241;28;20303;-51
2021/09/25 02:51:26;;;;;;;7.30;6.60;;;12.90;99.90;;;;;;5028613;28;20259;-50
2021/09/25 02:53:52;;;;;;;7.43;6.73;;;12.80;99.90;;;;;;5028964;28;20292;-52
2021/09/25 02:56:17;;;;;;;7.23;6.53;;;12.90;99.90;;;;;;5029755;28;20201;-50
2021/09/25 02:58:43;;;;;;;7.80;6.97;;;13.00;99.90;;;;;;5026191;28;20198;-51
2021/09/25 03:01:08;;;;;;;7.33;6.63;;;13.10;99.90;;;;;;5031172;28;20191;-51
2021/09/25 03:03:34;;;;;;;8.33;6.87;;;12.90;99.90;;;;;;5035512;28;20718;-51
2021/09/25 03:06:00;;;;;;;7.37;6.23;;;12.70;99.90;;;;;;5035994;28;20207;-50
2021/09/25 03:08:25;;;;;;;7.20;6.50;;;13.00;99.90;;;;;;5031494;28;20262;-50
2021/09/25 03:10:51;;;;;;;7.43;6.73;;;13.00;99.90;;;;;;5024345;28;20683;-51
2021/09/25 03:13:16;;;;;;;8.10;7.30;;;13.00;99.90;;;;;;5027901;28;20197;-50
2021/09/25 03:15:43;;;;;;;7.30;6.60;;;12.60;99.90;;;;;;5029411;28;20200;-49
2021/09/25 03:18:09;;;;;;;7.45;6.65;;;12.40;99.90;;;;;;5030302;28;20233;-50
2021/09/25 03:20:35;;;;;;;7.57;6.87;;;12.50;99.90;;;;;;5030680;28;20284;-50
2021/09/25 03:23:01;;;;;;;8.27;7.40;;;12.30;99.90;;;;;;5028320;28;20295;-50
2021/09/25 03:25:26;;;;;;;8.20;7.03;;;12.10;99.90;;;;;;5028330;28;20196;-50
2021/09/25 03:27:54;;;;;;;8.93;6.90;;;12.50;99.90;;;;;;5039369;28;20502;-50
2021/09/25 03:30:21;;;;;;;7.07;6.20;;;12.60;99.90;;;;;;5034158;28;20238;-50
2021/09/25 03:32:47;;;;;;;8.55;7.68;;;12.60;99.90;;;;;;5033531;28;20177;-50
2021/09/25 03:35:14;;;;;;;10.30;7.00;;;12.70;99.90;;;;;;5030721;28;20204;-49
2021/09/25 03:37:39;;;;;;;7.45;6.75;;;12.60;99.90;;;;;;5029954;28;20199;-50
2021/09/25 03:40:06;;;;;;;7.17;6.47;;;12.70;99.90;;;;;;5037532;28;20258;-50
2021/09/25 03:42:32;;;;;;;6.53;5.80;;;12.60;99.90;;;;;;5033554;28;20245;-50
2021/09/25 03:44:58;;;;;;;8.90;7.10;;;12.60;99.90;;;;;;5026880;28;20184;-51
2021/09/25 03:47:23;;;;;;;7.15;6.45;;;12.50;99.90;;;;;;5030664;28;20202;-51
2021/09/25 03:49:49;;;;;;;6.73;6.13;;;12.60;99.90;;;;;;5030581;28;20182;-52
2021/09/25 03:52:14;;;;;;;8.83;6.70;;;12.80;99.90;;;;;;5030235;28;20226;-50
2021/09/25 03:54:40;;;;;;;8.87;7.00;;;12.60;99.90;;;;;;5027989;28;20178;-50
2021/09/25 03:57:06;;;;;;;9.10;7.30;;;12.90;99.90;;;;;;5039741;28;20655;-51
2021/09/25 03:59:32;;;;;;;8.10;7.30;;;12.60;99.90;;;;;;5033598;28;20197;-51
2021/09/25 04:01:58;;;;;;;7.57;6.63;;;12.50;99.90;;;;;;5040035;28;20272;-52
2021/09/25 04:04:24;;;;;;;8.40;7.10;;;12.70;99.90;;;;;;5030274;28;20646;-51
2021/09/25 04:06:49;;;;;;;8.33;7.50;;;12.40;99.90;;;;;;5031039;28;20189;-50
2021/09/25 04:09:15;;;;;;;7.43;6.73;;;12.60;99.90;;;;;;5026450;28;20462;-49
2021/09/25 04:11:40;;;;;;;7.10;6.10;;;12.40;99.90;;;;;;5031517;28;20241;-49
2021/09/25 04:14:06;;;;;;;8.20;7.30;;;12.40;99.90;;;;;;5024753;28;20200;-50
2021/09/25 04:16:32;;;;;;;6.87;6.27;;;12.40;99.90;;;;;;5035962;28;20643;-50
2021/09/25 04:18:57;;;;;;;7.93;6.67;;;12.50;99.90;;;;;;5033994;28;20200;-50
2021/09/25 04:21:23;;;;;;;8.03;7.10;;;12.30;99.90;;;;;;5032554;28;20197;-49
2021/09/25 04:23:48;;;;;;;8.10;7.30;;;12.50;99.90;;;;;;5028843;28;20250;-51
2021/09/25 04:26:16;;;;;;;8.83;7.47;;;12.40;99.90;;;;;;5029770;28;20194;-50
2021/09/25 04:28:42;;;;;;;7.68;6.88;;;12.30;99.90;;;;;;5025867;28;20280;-50
2021/09/25 04:31:07;;;;;;;7.93;6.78;;;12.60;99.90;;;;;;5043511;28;20216;-51
2021/09/25 04:33:33;;;;;;;7.73;6.93;;;12.40;99.90;;;;;;5049974;28;20604;-51
2021/09/25 04:35:59;;;;;;;9.00;7.43;;;12.60;99.90;;;;;;5040578;28;20216;-50
2021/09/25 04:38:24;;;;;;;7.47;6.67;;;12.60;99.90;;;;;;5027171;28;20213;-50
2021/09/25 04:40:50;;;;;;;7.77;6.87;;;12.20;99.90;;;;;;5030131;28;20184;-50
2021/09/25 04:43:15;;;;;;;9.17;8.00;;;12.70;99.90;;;;;;5027107;28;20193;-49
2021/09/25 04:45:41;;;;;;;7.70;6.90;;;12.40;99.90;;;;;;5028717;28;20201;-49
2021/09/25 04:48:07;;;;;;;8.00;6.90;;;12.30;99.90;;;;;;5030851;28;20312;-50
2021/09/25 04:50:32;;;;;;;7.60;6.90;;;12.40;99.90;;;;;;5034797;28;20227;-49
2021/09/25 04:53:05;;;;;;;8.20;6.53;;;12.30;99.90;;;;;;5027581;28;20646;-50
2021/09/25 04:55:31;;;;;;;7.57;6.85;;;12.20;99.90;;;;;;5038931;28;20552;-50
2021/09/25 04:57:57;;;;;;;9.10;7.43;;;12.40;99.90;;;;;;5029703;28;20202;-51
2021/09/25 05:00:22;;;;;;;8.87;7.00;;;12.20;99.90;;;;;;5018670;28;20189;-49
2021/09/25 05:02:48;;;;;;;7.43;6.73;;;12.10;99.90;;;;;;5028210;28;20186;-51
2021/09/25 05:05:13;;;;;;;6.83;6.07;;;12.20;99.90;;;;;;5028999;28;20183;-51
2021/09/25 05:07:39;;;;;;;8.30;7.40;;;11.90;99.90;;;;;;5029956;28;20257;-51
2021/09/25 05:10:05;;;;;;;8.13;7.23;;;11.70;99.90;;;;;;5026903;28;20186;-50
2021/09/25 05:12:31;;;;;;;7.17;5.90;;;12.30;99.90;;;;;;5032441;28;20199;-51
2021/09/25 05:14:56;;;;;;;6.40;5.80;;;12.10;99.90;;;;;;5023088;28;20960;-50
2021/09/25 05:17:22;;;;;;;10.03;7.47;;;12.00;99.90;;;;;;5028952;28;20266;-50
2021/09/25 05:19:48;;;;;;;7.93;6.70;;;12.30;99.90;;;;;;5027636;28;20546;-51
2021/09/25 05:22:14;;;;;;;7.53;6.73;;;12.00;99.90;;;;;;5018623;28;20185;-51
2021/09/25 05:24:39;;;;;;;8.00;6.88;;;11.90;99.90;;;;;;5025465;28;20449;-50
2021/09/25 05:27:05;;;;;;;7.03;6.33;;;12.20;99.90;;;;;;5032974;28;20190;-51
2021/09/25 05:29:31;;;;;;;7.67;6.97;;;12.00;99.90;;;;;;5023257;28;20640;-51
2021/09/25 05:32:01;;;;;;;7.40;6.67;;;12.00;99.90;;;;;;5029179;28;20472;-50
2021/09/25 05:34:28;;;;;;;8.40;7.10;;;12.10;99.90;;;;;;5029320;28;20240;-51
2021/09/25 05:36:55;;;;;;;8.57;6.90;;;12.20;99.90;;;;;;5025617;28;20190;-51
2021/09/25 05:39:20;;;;;;;7.47;6.78;;;12.20;99.90;;;;;;5031106;28;20285;-50
2021/09/25 05:41:46;;;;;;;7.47;6.77;;;12.00;99.90;;;;;;5038251;28;20282;-51
2021/09/25 05:44:12;;;;;;;11.53;8.10;;;12.00;99.90;;;;;;5030218;28;20267;-51
2021/09/25 05:46:37;;;;;;;8.10;7.30;;;12.10;99.90;;;;;;5036269;28;20224;-50
2021/09/25 05:49:03;;;;;;;8.90;8.00;;;12.10;99.90;;;;;;5032215;28;20705;-51
2021/09/25 05:51:28;;;;;;;9.93;6.90;;;11.90;99.90;;;;;;5036199;28;20249;-50
2021/09/25 05:53:54;;;;;;;8.20;7.23;;;12.20;99.90;;;;;;5026500;28;20179;-51
2021/09/25 05:56:20;;;;;;;8.57;7.47;;;12.20;99.90;;;;;;5038195;28;20559;-49
2021/09/25 05:58:45;;;;;;;7.40;6.53;;;12.00;99.90;;;;;;5029061;28;20266;-49
2021/09/25 06:01:11;;;;;;;8.17;7.23;;;11.90;99.90;;;;;;5038779;28;20273;-49
2021/09/25 06:03:36;;;;;;;8.40;7.47;;;11.90;99.90;;;;;;5029238;28;20197;-49
2021/09/25 06:06:02;;;;;;;7.47;6.60;;;12.10;99.90;;;;;;5032181;28;20197;-50
2021/09/25 06:08:28;;;;;;;7.67;6.67;;;12.00;99.90;;;;;;5022918;28;20211;-50
2021/09/25 06:10:53;;;;;;;9.53;7.83;;;12.30;99.90;;;;;;5029103;28;20221;-51
2021/09/25 06:13:19;;;;;;;8.03;7.23;;;12.10;99.90;;;;;;5030582;28;20180;-49
2021/09/25 06:15:45;;;;;;;7.47;6.57;;;12.20;99.90;;;;;;5029600;28;20450;-51
2021/09/25 06:18:12;;;;;;;9.33;6.67;;;12.20;99.90;;;;;;5034401;28;20211;-50
2021/09/25 06:20:38;;;;;;;6.97;6.10;;;12.30;99.90;;;;;;5026396;28;20486;-52
2021/09/25 06:23:04;;;;;;;6.85;6.25;;;12.30;99.90;;;;;;5033136;28;20193;-51
2021/09/25 06:25:30;;;;;;;9.37;7.00;;;12.30;99.90;;;;;;5037123;28;20185;-50
2021/09/25 06:27:55;;;;;;;8.83;7.20;;;12.60;99.90;;;;;;5030181;28;20287;-49
2021/09/25 06:30:21;;;;;;;6.90;6.20;;;12.60;99.90;;;;;;5030387;28;20202;-51
2021/09/25 06:32:47;;;;;;;8.33;7.13;;;12.60;99.90;;;;;;5031437;28;20179;-50
2021/09/25 06:35:15;;;;;;;8.07;6.30;;;12.90;99.90;;;;;;5036652;28;20198;-49
2021/09/25 06:37:40;;;;;;;6.95;6.25;;;13.10;99.90;;;;;;5026507;28;20264;-49
2021/09/25 06:40:10;;;;;;;7.63;6.77;;;13.20;99.90;;;;;;5031592;28;20573;-50
2021/09/25 06:42:36;;;;;;;7.85;7.05;;;13.20;99.90;;;;;;5034237;28;20212;-50
2021/09/25 06:45:02;;;;;;;8.65;7.25;;;13.50;99.90;;;;;;5024996;28;20221;-50
2021/09/25 06:47:28;;;;;;;10.23;6.75;;;13.10;99.90;;;;;;5032257;28;20216;-50
2021/09/25 06:49:53;;;;;;;8.10;6.10;;;13.30;99.90;;;;;;5031871;28;20276;-51
2021/09/25 06:52:19;;;;;;;6.97;6.27;;;13.50;99.90;;;;;;5029496;28;20216;-49
2021/09/25 06:54:44;;;;;;;6.97;6.23;;;13.60;99.90;;;;;;5028297;28;20639;-49
2021/09/25 06:57:10;;;;;;;7.77;6.93;;;13.70;99.90;;;;;;5032928;28;20190;-51
2021/09/25 06:59:37;;;;;;;7.87;7.07;;;14.00;99.90;;;;;;5029076;28;20667;-51
2021/09/25 07:02:02;;;;;;;7.57;6.53;;;14.20;99.90;;;;;;5029084;28;21001;-51
2021/09/25 07:04:28;;;;;;;7.70;6.47;;;14.20;99.90;;;;;;5036551;28;20305;-51
2021/09/25 07:06:54;;;;;;;9.43;7.13;;;14.60;99.90;;;;;;5033742;28;20476;-51
2021/09/25 07:09:19;;;;;;;8.00;7.20;;;14.80;99.90;;;;;;5033580;28;20675;-51
2021/09/25 07:11:45;;;;;;;7.50;6.60;;;15.00;99.90;;;;;;5031293;28;20269;-52
2021/09/25 07:14:10;;;;;;;8.67;7.83;;;14.80;99.90;;;;;;5030227;28;20707;-51
2021/09/25 07:16:36;;;;;;;8.63;7.73;;;14.90;99.90;;;;;;5032215;28;20193;-51
2021/09/25 07:19:04;;;;;;;9.40;7.10;;;15.40;99.90;;;;;;5033162;28;20210;-51
2021/09/25 07:21:31;;;;;;;7.45;6.30;;;15.90;99.90;;;;;;5029158;28;20228;-52
2021/09/25 07:23:56;;;;;;;8.45;7.47;;;16.30;99.90;;;;;;5034936;28;20288;-51
2021/09/25 07:26:23;;;;;;;8.17;7.40;;;17.00;99.90;;;;;;5037561;28;20190;-50
2021/09/25 07:28:49;;;;;;;8.10;7.30;;;17.00;99.90;;;;;;5023115;28;20343;-49
2021/09/25 07:31:14;;;;;;;6.85;6.18;;;17.60;99.90;;;;;;5023402;28;20210;-50
2021/09/25 07:33:40;;;;;;;6.47;5.77;;;17.90;99.90;;;;;;5025888;28;20182;-50
2021/09/25 07:36:06;;;;;;;7.80;7.10;;;17.80;99.90;;;;;;5029745;28;20456;-49
2021/09/25 07:38:32;;;;;;;8.47;6.80;;;17.80;99.90;;;;;;5024229;28;20199;-48
2021/09/25 07:40:57;;;;;;;8.63;7.13;;;18.10;99.90;;;;;;5024923;28;20187;-48
2021/09/25 07:43:24;;;;;;;7.17;6.47;;;18.50;99.90;;;;;;5027384;28;20232;-50
2021/09/25 07:45:50;;;;;;;8.20;6.60;;;19.00;99.90;;;;;;5027123;28;20181;-48
2021/09/25 07:48:16;;;;;;;7.00;6.40;;;20.00;98.90;;;;;;5028075;28;20206;-48
2021/09/25 07:50:41;;;;;;;7.00;6.40;;;21.60;96.90;;;;;;5029871;28;20210;-50
2021/09/25 07:53:07;;;;;;;7.13;6.43;;;23.20;93.80;;;;;;5027678;28;20186;-50
2021/09/25 07:55:34;;;;;;;7.70;7.00;;;23.70;91.30;;;;;;5030321;28;20186;-49
2021/09/25 07:58:00;;;;;;;6.53;6.03;;;23.80;90.40;;;;;;5029883;28;20267;-51
2021/09/25 08:00:25;;;;;;;6.90;6.20;;;23.80;90.40;;;;;;5027175;28;20441;-50
2021/09/25 08:02:51;;;;;;;9.60;8.70;;;23.60;88.60;;;;;;5022848;28;20222;-50
2021/09/25 08:05:17;;;;;;;8.53;6.80;;;23.30;89.30;;;;;;5029496;28;20635;-50
2021/09/25 08:07:43;;;;;;;7.30;6.57;;;22.80;89.20;;;;;;5027808;28;20194;-50
2021/09/25 08:10:11;;;;;;;7.80;7.00;;;22.10;90.80;;;;;;5024992;28;20446;-49
2021/09/25 08:12:36;;;;;;;7.35;6.65;;;21.50;91.70;;;;;;5030106;28;20213;-49
2021/09/25 08:15:03;;;;;;;7.90;7.20;;;21.00;92.50;;;;;;5022677;28;20221;-49
2021/09/25 08:17:29;;;;;;;8.15;7.35;;;20.70;93.10;;;;;;5028620;28;20206;-50
2021/09/25 08:19:54;;;;;;;8.27;7.50;;;20.40;93.70;;;;;;5029642;28;20186;-49
2021/09/25 08:22:20;;;;;;;8.40;7.60;;;20.30;94.10;;;;;;5029099;28;20276;-49
2021/09/25 08:24:46;;;;;;;8.80;7.90;;;20.10;94.30;;;;;;5030580;28;20537;-49
2021/09/25 08:27:11;;;;;;;7.67;6.97;;;19.90;94.90;;;;;;5036144;28;20533;-48
2021/09/25 08:29:38;;;;;;;7.90;6.97;;;19.90;95.20;;;;;;5025778;28;20194;-49
2021/09/25 08:32:05;;;;;;;8.60;7.70;;;19.90;95.30;;;;;;5031344;28;20240;-49
2021/09/25 08:34:31;;;;;;;8.20;7.40;;;19.90;95.20;;;;;;5030094;28;20201;-49
2021/09/25 08:36:56;;;;;;;8.70;7.33;;;20.00;95.00;;;;;;5019118;28;20645;-48
2021/09/25 08:39:22;;;;;;;8.67;6.40;;;19.90;95.10;;;;;;5020943;28;20825;-49
2021/09/25 08:41:51;;;;;;;8.10;7.10;;;19.80;95.30;;;;;;5029024;28;20190;-49
2021/09/25 08:44:17;;;;;;;8.30;7.40;;;19.90;95.50;;;;;;5029189;28;20665;-49
2021/09/25 08:46:42;;;;;;;8.37;7.67;;;19.80;95.50;;;;;;5033758;28;20205;-49
2021/09/25 08:49:08;;;;;;;6.90;6.23;;;19.90;95.70;;;;;;5031054;28;20304;-50
2021/09/25 08:51:35;;;;;;;6.20;5.70;;;19.90;95.60;;;;;;5026650;28;20214;-49
2021/09/25 08:54:02;;;;;;;8.18;7.35;;;19.80;95.60;;;;;;5028912;28;20182;-50
2021/09/25 08:56:29;;;;;;;7.45;6.75;;;19.80;95.80;;;;;;5035494;28;20205;-51
2021/09/25 08:58:55;;;;;;;6.55;6.05;;;19.90;95.90;;;;;;5025049;28;20531;-50
2021/09/25 09:01:25;;;;;;;8.48;6.50;;;20.20;95.60;;;;;;5036822;28;20560;-51
2021/09/25 09:03:52;;;;;;;6.88;5.90;;;20.50;94.90;;;;;;5033647;28;20183;-50
2021/09/25 09:06:22;;;;;;;8.68;6.90;;;21.00;94.50;;;;;;5036453;28;20729;-50
2021/09/25 09:08:49;;;;;;;7.10;6.45;;;21.30;93.60;;;;;;5021439;28;20214;-50
2021/09/25 09:11:17;;;;;;;7.50;6.80;;;21.40;93.40;;;;;;5029379;28;20210;-50
2021/09/25 09:13:45;;;;;;;7.10;6.40;;;21.50;93.60;;;;;;5027203;28;20649;-50
2021/09/25 09:16:12;;;;;;;7.18;6.47;;;21.60;93.40;;;;;;5035494;28;20197;-50
2021/09/25 09:18:41;;;;;;;7.22;5.88;;;21.60;93.20;;;;;;5032191;28;20202;-51
2021/09/25 09:21:15;;;;;;;7.03;6.32;;;21.70;93.20;;;;;;5032511;28;20643;-50
2021/09/25 09:23:44;;;;;;;6.85;6.25;;;21.80;93.10;;;;;;5031420;28;20186;-50
2021/09/25 09:26:12;;;;;;;7.07;6.47;;;21.90;92.90;;;;;;5031828;28;20272;-51
2021/09/25 09:28:38;;;;;;;6.57;6.00;;;22.10;92.70;;;;;;5034139;28;20472;-50
2021/09/25 09:31:06;;;;;;;6.83;6.17;;;22.50;92.10;;;;;;5034655;28;20471;-50
2021/09/25 09:33:39;;;;;;;9.57;6.50;;;22.80;91.60;;;;;;5039431;28;20185;-50
2021/09/25 09:36:21;;;;;;;7.83;6.20;;;23.10;91.60;;;;;;5037154;28;20809;-50
2021/09/25 09:39:03;;;;;;;7.00;6.30;;;23.30;90.60;;;;;;5026539;28;20456;-51
2021/09/25 09:41:40;;;;;;;7.30;6.60;;;24.90;89.40;;;;;;5036631;28;20446;-51
2021/09/25 09:44:15;;;;;;;6.30;5.80;;;27.00;82.40;;;;;;5025801;28;20446;-51
2021/09/25 09:46:43;;;;;;;6.43;5.93;;;28.80;74.00;;;;;;5040867;28;21027;-52
2021/09/25 09:49:13;;;;;;;6.23;5.67;;;30.10;69.90;;;;;;5033791;28;20538;-52
2021/09/25 09:51:49;;;;;;;7.03;6.40;;;31.60;63.00;;;;;;5038498;28;20515;-51
2021/09/25 09:54:19;;;;;;;5.70;5.20;;;32.20;60.10;;;;;;5030365;28;20937;-51
2021/09/25 09:56:45;;;;;;;7.77;6.07;;;32.80;57.20;;;;;;5031922;28;20473;-52
2021/09/25 09:59:12;;;;;;;7.70;6.73;;;33.30;56.30;;;;;;5036761;28;20455;-51
2021/09/25 10:01:38;;;;;;;6.23;5.63;;;34.20;54.50;;;;;;5032302;28;20793;-51
2021/09/25 10:04:06;;;;;;;9.13;8.30;;;34.80;52.70;;;;;;5032711;28;20518;-53
2021/09/25 10:06:35;;;;;;;8.40;6.50;;;34.70;51.70;;;;;;5027527;28;20445;-52
2021/09/25 10:09:03;;;;;;;5.70;5.30;;;33.50;53.10;;;;;;5030930;28;20872;-51
2021/09/25 10:11:30;;;;;;;6.33;5.77;;;33.90;51.40;;;;;;5027664;28;20969;-50
2021/09/25 10:13:56;;;;;;;5.73;5.10;;;32.30;53.60;;;;;;5027786;28;21027;-53
2021/09/25 10:16:25;;;;;;;5.67;5.20;;;31.80;54.40;;;;;;5031234;28;21000;-52
2021/09/25 10:18:54;;;;;;;7.67;6.87;;;31.90;55.30;;;;;;5031931;28;20973;-51
2021/09/25 10:21:20;;;;;;;10.33;9.33;;;30.80;57.10;;;;;;5032993;28;20443;-52
2021/09/25 10:23:55;;;;;;;5.37;4.97;;;29.80;58.70;;;;;;5024169;28;20451;-53
2021/09/25 10:26:22;;;;;;;6.27;4.80;;;29.30;59.00;;;;;;5031051;28;20529;-52
2021/09/25 10:29:06;;;;;;;6.70;6.20;;;28.60;60.40;;;;;;5028467;28;20988;-52
2021/09/25 10:31:32;;;;;;;5.47;4.97;;;28.20;62.70;;;;;;5028063;28;20808;-52
2021/09/25 10:34:19;;;;;;;5.97;5.47;;;27.50;65.30;;;;;;5029511;28;20623;-52
2021/09/25 10:36:57;;;;;;;7.50;5.03;;;27.00;66.90;;;;;;5030148;28;20444;-52
2021/09/25 10:39:36;;;;;;;5.47;4.97;;;26.80;68.30;;;;;;5023955;28;20477;-52
2021/09/25 10:42:01;;;;;;;6.23;5.53;;;26.60;69.50;;;;;;5028768;28;20540;-52
2021/09/25 10:44:32;;;;;;;6.33;5.23;;;26.30;70.20;;;;;;5030011;28;20531;-51
2021/09/25 10:47:22;;;;;;;5.90;5.40;;;25.90;71.90;;;;;;5029869;28;20277;-51
2021/09/25 10:50:14;;;;;;;5.30;4.83;;;25.90;73.10;;;;;;5028658;28;20490;-53
2021/09/25 10:52:49;;;;;;;6.27;5.77;;;25.60;74.20;;;;;;5023220;28;21041;-52
2021/09/25 10:55:23;;;;;;;5.60;5.00;;;25.40;75.70;;;;;;5028950;28;20449;-51
2021/09/25 10:58:11;;;;;;;5.03;4.60;;;25.80;75.20;;;;;;5028516;28;20492;-52
2021/09/25 11:00:47;;;;;;;4.47;4.10;;;27.00;72.00;;;;;;5026629;28;20457;-51
2021/09/25 11:03:47;;;;;;;4.67;4.30;;;28.30;68.80;;;;;;5040178;28;20443;-53
2021/09/25 11:06:32;;;;;;;8.80;8.00;;;28.70;66.20;;;;;;5020916;28;20463;-53
2021/09/25 11:09:16;;;;;;;6.93;6.13;;;28.00;67.00;;;;;;5020114;28;20787;-52
2021/09/25 11:11:45;;;;;;;6.47;5.87;;;27.70;68.70;;;;;;5026454;28;20553;-52
2021/09/25 11:14:15;;;;;;;5.17;4.77;;;27.30;69.80;;;;;;5028881;28;20441;-52
2021/09/25 11:16:48;;;;;;;5.40;4.90;;;26.60;71.20;;;;;;5032199;28;20954;-51
2021/09/25 11:19:22;;;;;;;5.90;5.27;;;26.50;71.40;;;;;;5029887;28;20478;-52
2021/09/25 11:21:50;;;;;;;5.83;5.23;;;26.40;72.90;;;;;;5028834;28;20498;-52
2021/09/25 11:24:19;;;;;;;5.17;4.77;;;26.20;73.80;;;;;;5028794;28;20448;-52
2021/09/25 11:26:45;;;;;;;5.70;5.20;;;25.90;74.10;;;;;;5030491;28;20862;-52
2021/09/25 11:29:11;;;;;;;5.70;4.70;;;25.80;74.80;;;;;;5027046;28;20475;-52
2021/09/25 11:31:38;;;;;;;5.20;4.47;;;25.90;73.80;;;;;;5033665;28;20523;-52
2021/09/25 11:34:21;;;;;;;4.73;4.40;;;25.80;74.20;;;;;;5034579;28;20446;-52
2021/09/25 11:37:02;;;;;;;5.50;5.10;;;25.90;74.20;;;;;;5033212;28;20565;-52
2021/09/25 11:39:43;;;;;;;4.87;4.47;;;25.80;75.10;;;;;;5025536;28;20438;-52
2021/09/25 11:42:16;;;;;;;5.53;5.10;;;25.80;76.00;;;;;;5033863;28;20448;-52
2021/09/25 11:45:00;;;;;;;5.40;4.97;;;25.70;76.20;;;;;;5021727;28;20495;-52
2021/09/25 11:47:43;;;;;;;4.60;4.20;;;25.70;76.20;;;;;;5029297;28;20470;-52
2021/09/25 11:50:38;;;;;;;7.50;5.13;;;25.70;74.50;;;;;;5028015;28;20450;-52
2021/09/25 11:53:07;;;;;;;5.57;4.50;;;25.70;75.50;;;;;;5017785;28;20450;-51
2021/09/25 11:55:35;;;;;;;4.10;3.80;;;26.00;75.20;;;;;;5033866;28;20456;-51
2021/09/25 11:58:12;;;;;;;5.30;4.30;;;26.20;74.50;;;;;;5025825;28;20471;-52
2021/09/25 12:00:46;;;;;;;4.40;4.10;;;26.40;73.40;;;;;;5022789;28;20512;-53
2021/09/25 12:03:13;;;;;;;4.97;4.57;;;26.40;72.90;;;;;;5034323;28;20529;-51
2021/09/25 12:05:45;;;;;;;5.60;5.03;;;26.40;73.80;;;;;;5036206;28;20453;-53
2021/09/25 12:08:23;;;;;;;5.23;4.73;;;26.70;73.40;;;;;;5026616;28;20497;-52
2021/09/25 12:10:59;;;;;;;4.67;4.27;;;26.70;73.50;;;;;;5023229;28;21776;-53
2021/09/25 12:13:26;;;;;;;5.10;4.70;;;26.70;71.20;;;;;;5026022;28;20456;-52
2021/09/25 12:15:55;;;;;;;5.63;5.13;;;26.70;71.10;;;;;;5025679;28;20910;-52
2021/09/25 12:18:38;;;;;;;5.23;4.73;;;26.50;71.00;;;;;;5027174;28;20459;-51
2021/09/25 12:21:06;;;;;;;4.87;4.47;;;26.20;71.70;;;;;;5035041;28;21004;-53
2021/09/25 12:23:35;;;;;;;4.17;3.77;;;26.30;72.40;;;;;;5028504;28;20831;-52
2021/09/25 12:26:03;;;;;;;4.17;3.87;;;26.30;71.90;;;;;;5028840;28;20944;-53
2021/09/25 12:28:46;;;;;;;4.27;3.97;;;26.40;71.10;;;;;;5021337;28;20484;-53
2021/09/25 12:31:32;;;;;;;4.27;3.97;;;26.30;72.00;;;;;;5024083;28;20514;-53
2021/09/25 12:34:02;;;;;;;4.10;3.80;;;26.40;70.80;;;;;;5026335;28;20450;-52
2021/09/25 12:36:42;;;;;;;4.37;3.97;;;26.40;69.90;;;;;;5033169;28;20456;-52
2021/09/25 12:39:10;;;;;;;4.10;3.80;;;26.40;71.90;;;;;;5026134;28;22257;-53
2021/09/25 12:41:37;;;;;;;4.67;4.27;;;26.40;70.50;;;;;;5027014;28;20446;-52
2021/09/25 12:44:05;;;;;;;4.50;4.20;;;26.40;71.10;;;;;;5019476;28;20967;-51
2021/09/25 12:46:33;;;;;;;5.03;4.57;;;26.40;70.90;;;;;;5032213;28;20533;-53
2021/09/25 12:49:08;;;;;;;4.03;3.73;;;26.40;70.70;;;;;;5027173;28;20468;-52